Time;durP1;ratioP1;P1;durP2;ratioP2;P2;SDS_P1;SDS_P2;PMS_P1;PMS_P2;Temp;Humidity;BMP_temperature;BMP_pressure;BME280_temperature;BME280_humidity;BME280_pressure;Samples;Min_cycle;Max_cycle;Signal;HPM_P1;HPM_P2
2023/10/05 00:01:02;;;;;;;15.13;3.93;;;15.00;99.90;;;;;;5054200;28;20555;-77
2023/10/05 00:03:30;;;;;;;8.90;3.57;;;15.00;99.90;;;;;;5053930;28;20456;-79
2023/10/05 00:06:04;;;;;;;9.10;3.47;;;15.00;99.90;;;;;;5054624;28;20852;-77
2023/10/05 00:08:31;;;;;;;11.27;3.47;;;14.90;99.90;;;;;;5053634;28;20473;-77
2023/10/05 00:11:00;;;;;;;11.00;3.50;;;15.00;99.90;;;;;;5055540;28;20475;-77
2023/10/05 00:13:32;;;;;;;7.03;2.83;;;15.00;99.90;;;;;;5054893;28;20460;-78
2023/10/05 00:15:59;;;;;;;9.53;3.43;;;15.00;99.90;;;;;;5056284;28;20463;-77
2023/10/05 00:18:26;;;;;;;14.57;3.27;;;14.90;99.90;;;;;;5055816;28;20522;-78
2023/10/05 00:20:54;;;;;;;7.80;2.93;;;14.90;99.90;;;;;;5055886;28;20549;-78
2023/10/05 00:23:20;;;;;;;9.13;3.77;;;14.90;99.90;;;;;;5055505;28;20486;-77
2023/10/05 00:25:47;;;;;;;5.97;3.00;;;14.90;99.90;;;;;;5054344;28;20455;-78
2023/10/05 00:28:20;;;;;;;9.57;3.57;;;15.00;99.90;;;;;;5055509;28;20452;-78
2023/10/05 00:30:50;;;;;;;11.17;3.10;;;14.70;99.90;;;;;;5055693;28;20832;-78
2023/10/05 00:33:17;;;;;;;8.30;3.37;;;14.80;99.90;;;;;;5055112;28;20451;-78
2023/10/05 00:35:44;;;;;;;8.20;3.47;;;14.80;99.90;;;;;;5054953;28;20451;-77
2023/10/05 00:38:14;;;;;;;6.67;2.90;;;14.70;99.90;;;;;;5055639;28;20461;-77
2023/10/05 00:40:58;;;;;;;8.80;3.43;;;14.70;99.90;;;;;;5054257;28;20482;-78
2023/10/05 00:43:25;;;;;;;8.90;2.83;;;14.70;99.90;;;;;;5057582;28;20466;-77
2023/10/05 00:45:57;;;;;;;9.63;3.20;;;14.70;99.90;;;;;;5057965;28;20456;-79
2023/10/05 00:48:30;;;;;;;5.63;2.93;;;14.70;99.90;;;;;;5058715;28;20466;-77
2023/10/05 00:51:00;;;;;;;9.03;2.73;;;14.70;99.90;;;;;;5058483;28;20550;-78
2023/10/05 00:53:28;;;;;;;6.53;2.90;;;14.70;99.90;;;;;;5058364;28;20447;-78
2023/10/05 00:56:07;;;;;;;9.90;3.10;;;14.70;99.90;;;;;;5059539;28;20470;-78
2023/10/05 00:58:38;;;;;;;12.50;3.30;;;14.80;99.90;;;;;;5058994;28;20487;-79
2023/10/05 01:01:08;;;;;;;9.50;3.57;;;14.80;99.90;;;;;;5059765;28;20544;-78
2023/10/05 01:03:46;;;;;;;6.30;3.30;;;14.80;99.90;;;;;;5060676;28;20455;-77
2023/10/05 01:06:26;;;;;;;7.97;2.30;;;14.80;99.90;;;;;;5061001;28;20822;-77
2023/10/05 01:08:59;;;;;;;7.80;2.70;;;14.80;99.90;;;;;;5059246;28;20462;-78
2023/10/05 01:11:37;;;;;;;6.07;2.87;;;14.80;99.90;;;;;;5060695;28;20533;-78
2023/10/05 01:14:06;;;;;;;10.50;3.00;;;14.80;99.90;;;;;;5060965;28;20455;-77
2023/10/05 01:16:35;;;;;;;6.93;3.17;;;14.80;99.90;;;;;;5060377;28;21002;-78
2023/10/05 01:19:07;;;;;;;8.57;2.80;;;14.80;99.90;;;;;;5057976;28;20551;-78
2023/10/05 01:21:35;;;;;;;11.53;3.30;;;14.80;99.90;;;;;;5059866;28;20872;-78
2023/10/05 01:24:04;;;;;;;9.40;2.60;;;14.80;99.90;;;;;;5059140;28;20986;-77
2023/10/05 01:26:31;;;;;;;7.77;2.40;;;14.80;99.90;;;;;;5059496;28;20464;-78
2023/10/05 01:28:59;;;;;;;8.33;3.23;;;14.80;99.90;;;;;;5059898;28;20471;-78
2023/10/05 01:31:27;;;;;;;7.20;2.93;;;14.80;99.90;;;;;;5061026;28;20471;-78
2023/10/05 01:33:54;;;;;;;9.03;3.13;;;14.70;99.90;;;;;;5061243;28;20454;-78
2023/10/05 01:36:22;;;;;;;7.97;2.60;;;14.60;99.90;;;;;;5062971;28;20448;-79
2023/10/05 01:38:54;;;;;;;6.73;2.70;;;14.60;99.90;;;;;;5060992;28;21035;-78
2023/10/05 01:41:22;;;;;;;8.40;2.50;;;14.70;99.90;;;;;;5062307;28;20492;-78
2023/10/05 01:43:49;;;;;;;9.97;2.43;;;14.80;99.90;;;;;;5063853;28;20452;-78
2023/10/05 01:46:16;;;;;;;7.00;3.37;;;14.70;99.90;;;;;;5060471;28;20482;-78
2023/10/05 01:48:43;;;;;;;9.80;3.13;;;14.70;99.90;;;;;;5057411;28;20530;-78
2023/10/05 01:51:13;;;;;;;8.43;3.70;;;14.70;99.90;;;;;;5051025;28;20847;-77
2023/10/05 01:53:42;;;;;;;6.20;2.60;;;14.70;99.90;;;;;;5057379;28;20455;-78
2023/10/05 01:56:20;;;;;;;9.57;2.70;;;14.70;99.90;;;;;;5059415;28;20472;-77
2023/10/05 01:58:50;;;;;;;6.63;2.90;;;14.50;99.90;;;;;;5058458;28;20462;-78
2023/10/05 02:01:20;;;;;;;8.00;2.90;;;14.60;99.90;;;;;;5057305;28;20487;-77
2023/10/05 02:03:48;;;;;;;11.97;3.47;;;14.60;99.90;;;;;;5059492;28;20527;-78
2023/10/05 02:06:15;;;;;;;8.80;3.33;;;14.50;99.90;;;;;;5058084;28;20903;-79
2023/10/05 02:08:42;;;;;;;6.47;2.40;;;14.50;99.90;;;;;;5059018;28;20528;-78
2023/10/05 02:11:09;;;;;;;14.73;4.33;;;14.40;99.90;;;;;;5057853;28;20486;-78
2023/10/05 02:13:36;;;;;;;11.87;3.37;;;14.40;99.90;;;;;;5057086;28;20457;-78
2023/10/05 02:16:12;;;;;;;7.13;2.87;;;14.40;99.90;;;;;;5058571;28;20854;-78
2023/10/05 02:18:39;;;;;;;10.63;2.90;;;14.40;99.90;;;;;;5058512;28;20455;-79
2023/10/05 02:21:08;;;;;;;6.60;2.80;;;14.40;99.90;;;;;;5058147;28;20482;-77
2023/10/05 02:23:39;;;;;;;6.57;3.07;;;14.40;99.90;;;;;;5058616;28;20486;-78
2023/10/05 02:26:10;;;;;;;7.30;3.30;;;14.40;99.90;;;;;;5058007;28;20459;-77
2023/10/05 02:28:39;;;;;;;6.37;2.47;;;14.50;99.90;;;;;;5057473;28;20468;-77
2023/10/05 02:31:11;;;;;;;10.50;3.17;;;14.40;99.90;;;;;;5056350;28;20476;-77
2023/10/05 02:33:40;;;;;;;8.90;3.77;;;14.50;99.90;;;;;;5056501;28;20450;-77
2023/10/05 02:36:14;;;;;;;8.57;3.47;;;14.50;99.90;;;;;;5055846;28;20459;-78
2023/10/05 02:38:49;;;;;;;4.40;2.47;;;14.50;99.90;;;;;;5056214;28;20811;-78
2023/10/05 02:41:17;;;;;;;8.70;2.93;;;14.50;99.90;;;;;;5056109;28;20469;-78
2023/10/05 02:43:51;;;;;;;7.30;3.27;;;14.50;99.90;;;;;;5056858;28;20451;-78
2023/10/05 02:46:24;;;;;;;4.40;2.23;;;14.60;99.90;;;;;;5057077;28;20453;-78
2023/10/05 02:48:51;;;;;;;5.13;2.53;;;14.50;99.90;;;;;;5057299;28;20462;-78
2023/10/05 02:51:18;;;;;;;10.90;3.60;;;14.40;99.90;;;;;;5057359;28;21040;-78
2023/10/05 02:53:46;;;;;;;7.80;2.70;;;14.40;99.90;;;;;;5061228;28;20490;-77
2023/10/05 02:56:22;;;;;;;10.77;3.17;;;14.40;99.90;;;;;;5062798;28;20485;-79
2023/10/05 02:58:54;;;;;;;5.80;2.87;;;14.50;99.90;;;;;;5060546;28;20476;-78
2023/10/05 03:01:23;;;;;;;6.57;2.50;;;14.50;99.90;;;;;;5060637;28;20474;-77
2023/10/05 03:03:51;;;;;;;6.40;2.57;;;14.50;99.90;;;;;;5062048;28;20533;-78
2023/10/05 03:06:18;;;;;;;9.47;2.97;;;14.50;99.90;;;;;;5061955;28;20523;-79
2023/10/05 03:08:49;;;;;;;7.80;2.90;;;14.50;99.90;;;;;;5060854;28;20464;-78
2023/10/05 03:11:18;;;;;;;6.50;2.60;;;14.50;99.90;;;;;;5060956;28;20505;-78
2023/10/05 03:13:45;;;;;;;8.20;3.07;;;14.50;99.90;;;;;;5061021;28;20522;-77
2023/10/05 03:16:12;;;;;;;5.70;2.80;;;14.50;99.90;;;;;;5059290;28;20459;-78
2023/10/05 03:18:43;;;;;;;7.40;2.57;;;14.50;99.90;;;;;;5059358;28;20544;-79
2023/10/05 03:21:14;;;;;;;9.83;3.27;;;14.50;99.90;;;;;;5053740;28;20475;-78
2023/10/05 03:23:42;;;;;;;9.40;3.00;;;14.40;99.90;;;;;;5061752;28;20942;-79
2023/10/05 03:26:11;;;;;;;8.47;2.60;;;14.40;99.90;;;;;;5059401;28;20541;-79
2023/10/05 03:28:39;;;;;;;8.50;3.37;;;14.40;99.90;;;;;;5060462;28;20467;-79
2023/10/05 03:31:14;;;;;;;11.03;3.33;;;14.30;99.90;;;;;;5062266;28;20558;-79
2023/10/05 03:33:43;;;;;;;9.67;2.43;;;14.20;99.90;;;;;;5063005;28;20454;-78
2023/10/05 03:36:14;;;;;;;10.60;3.53;;;14.20;99.90;;;;;;5061085;28;20472;-78
2023/10/05 03:38:41;;;;;;;10.13;2.20;;;14.20;99.90;;;;;;5057504;28;20461;-79
2023/10/05 03:41:15;;;;;;;5.53;2.50;;;14.30;99.90;;;;;;5061218;28;20473;-79
2023/10/05 03:43:43;;;;;;;8.27;2.80;;;14.30;99.90;;;;;;5060160;28;20489;-79
2023/10/05 03:46:11;;;;;;;10.70;3.03;;;14.30;99.90;;;;;;5058030;28;20451;-78
2023/10/05 03:48:42;;;;;;;9.37;2.70;;;14.30;99.90;;;;;;5063086;28;20520;-78
2023/10/05 03:51:15;;;;;;;7.60;2.33;;;14.20;99.90;;;;;;5065454;28;20545;-78
2023/10/05 03:53:48;;;;;;;8.97;2.93;;;14.20;99.90;;;;;;5064171;28;20468;-78
2023/10/05 03:56:17;;;;;;;8.20;2.67;;;14.10;99.90;;;;;;5064523;28;20497;-77
2023/10/05 03:58:45;;;;;;;5.00;2.40;;;14.10;99.90;;;;;;5064511;28;20455;-77
2023/10/05 04:01:12;;;;;;;9.37;2.50;;;14.20;99.90;;;;;;5064557;28;20475;-77
2023/10/05 04:03:40;;;;;;;19.67;3.97;;;14.20;99.90;;;;;;5055622;28;20486;-77
2023/10/05 04:06:16;;;;;;;12.20;2.90;;;14.20;99.90;;;;;;5054707;28;20457;-77
2023/10/05 04:08:47;;;;;;;6.27;2.70;;;14.10;99.90;;;;;;5053948;28;20842;-78
2023/10/05 04:11:15;;;;;;;9.47;2.93;;;14.10;99.90;;;;;;5047300;28;20491;-77
2023/10/05 04:13:42;;;;;;;4.50;2.33;;;14.10;99.90;;;;;;5054661;28;20551;-77
2023/10/05 04:16:18;;;;;;;9.60;2.57;;;14.10;99.90;;;;;;5054937;28;20475;-76
2023/10/05 04:18:49;;;;;;;11.17;3.03;;;14.10;99.90;;;;;;5053165;28;20467;-77
2023/10/05 04:21:18;;;;;;;7.67;2.80;;;14.10;99.90;;;;;;5054353;28;20479;-77
2023/10/05 04:23:49;;;;;;;7.67;2.40;;;14.00;99.90;;;;;;5054145;28;20537;-76
2023/10/05 04:26:20;;;;;;;7.60;2.03;;;14.00;99.90;;;;;;5054397;28;20462;-77
2023/10/05 04:28:54;;;;;;;11.47;2.60;;;14.00;99.90;;;;;;5055357;28;20466;-77
2023/10/05 04:31:26;;;;;;;7.70;2.50;;;14.00;99.90;;;;;;5053686;28;20487;-77
2023/10/05 04:33:54;;;;;;;6.20;2.63;;;14.00;99.90;;;;;;5054642;28;20465;-77
2023/10/05 04:36:22;;;;;;;6.13;2.27;;;14.00;99.90;;;;;;5054455;28;20465;-77
2023/10/05 04:38:51;;;;;;;5.67;2.00;;;13.90;99.90;;;;;;5053255;28;20488;-78
2023/10/05 04:41:19;;;;;;;10.57;2.80;;;14.00;99.90;;;;;;5053666;28;20479;-77
2023/10/05 04:43:48;;;;;;;6.30;2.33;;;14.00;99.90;;;;;;5053793;28;20532;-77
2023/10/05 04:46:18;;;;;;;6.63;2.43;;;14.00;99.90;;;;;;5054042;28;20554;-77
2023/10/05 04:48:55;;;;;;;4.30;2.13;;;14.00;99.90;;;;;;5053913;28;20937;-76
2023/10/05 04:51:23;;;;;;;9.60;2.70;;;14.10;99.90;;;;;;5054865;28;20827;-77
2023/10/05 04:53:54;;;;;;;4.10;1.90;;;13.90;99.90;;;;;;5054511;28;20459;-78
2023/10/05 04:56:34;;;;;;;4.73;2.53;;;14.00;99.90;;;;;;5054650;28;20514;-77
2023/10/05 05:04:41;;;;;;;10.20;2.60;;;14.00;99.90;;;;;;5049882;28;20851;-78
2023/10/05 05:07:11;;;;;;;10.40;2.93;;;14.00;99.90;;;;;;5054533;28;20463;-77
2023/10/05 05:09:40;;;;;;;4.87;2.40;;;14.00;99.90;;;;;;5050279;28;20993;-78
2023/10/05 05:12:09;;;;;;;8.20;2.87;;;13.90;99.90;;;;;;5054674;28;20537;-78
2023/10/05 05:14:41;;;;;;;4.40;2.30;;;13.90;99.90;;;;;;5053203;28;20451;-76
2023/10/05 05:17:10;;;;;;;7.67;3.00;;;13.90;99.90;;;;;;5049463;28;20578;-77
2023/10/05 05:19:39;;;;;;;5.80;3.03;;;14.00;99.90;;;;;;5052041;28;20545;-78
2023/10/05 05:22:06;;;;;;;6.30;2.93;;;14.00;99.90;;;;;;5050269;28;20450;-79
2023/10/05 05:24:33;;;;;;;6.90;2.80;;;14.10;99.90;;;;;;5050491;28;20827;-78
2023/10/05 05:27:04;;;;;;;5.83;2.67;;;14.00;99.90;;;;;;5052208;28;20464;-78
2023/10/05 05:29:32;;;;;;;6.73;2.47;;;14.00;99.90;;;;;;5054503;28;20453;-77
2023/10/05 05:32:02;;;;;;;7.00;2.43;;;14.00;99.90;;;;;;5059194;28;20473;-78
2023/10/05 05:34:29;;;;;;;4.97;2.40;;;13.90;99.90;;;;;;5052217;28;20451;-78
2023/10/05 05:36:56;;;;;;;8.70;2.50;;;14.00;99.90;;;;;;5054886;28;20464;-77
2023/10/05 05:39:25;;;;;;;6.87;2.53;;;14.00;99.90;;;;;;5056280;28;20542;-77
2023/10/05 05:41:59;;;;;;;6.93;3.10;;;14.10;99.90;;;;;;5051050;28;20843;-79
2023/10/05 05:44:28;;;;;;;4.17;2.10;;;14.00;99.90;;;;;;5050622;28;20505;-79
2023/10/05 05:46:59;;;;;;;8.47;3.17;;;14.00;99.90;;;;;;5056764;28;20464;-79
2023/10/05 05:49:27;;;;;;;10.50;3.53;;;14.00;99.90;;;;;;5058990;28;20449;-79
2023/10/05 05:51:57;;;;;;;6.00;2.67;;;14.10;99.90;;;;;;5058734;28;20472;-78
2023/10/05 05:54:24;;;;;;;12.67;3.17;;;14.10;99.90;;;;;;5067965;28;20542;-79
2023/10/05 05:56:54;;;;;;;4.60;2.50;;;14.00;99.90;;;;;;5069275;28;20878;-78
2023/10/05 05:59:22;;;;;;;10.60;2.70;;;14.00;99.90;;;;;;5063119;28;20463;-77
2023/10/05 06:01:51;;;;;;;7.37;2.80;;;14.00;99.90;;;;;;5063961;28;20469;-78
2023/10/05 06:04:18;;;;;;;6.70;2.50;;;14.00;99.90;;;;;;5073696;28;20488;-78
2023/10/05 06:06:48;;;;;;;9.50;3.43;;;14.00;99.90;;;;;;5060550;28;20459;-78
2023/10/05 06:09:19;;;;;;;7.33;3.10;;;14.10;99.90;;;;;;5064006;28;20461;-78
2023/10/05 06:11:48;;;;;;;6.60;3.23;;;14.10;99.90;;;;;;5065161;28;20475;-78
2023/10/05 06:14:15;;;;;;;7.87;3.27;;;14.10;99.90;;;;;;5065074;28;20442;-77
2023/10/05 06:16:42;;;;;;;6.50;2.77;;;14.10;99.90;;;;;;5056842;28;20542;-78
2023/10/05 06:19:11;;;;;;;6.70;2.87;;;14.20;99.90;;;;;;5064241;28;20477;-76
2023/10/05 06:21:39;;;;;;;6.77;2.47;;;14.10;99.90;;;;;;5057803;28;20484;-78
2023/10/05 06:24:06;;;;;;;7.70;2.93;;;14.20;99.90;;;;;;5062805;28;20491;-78
2023/10/05 06:26:33;;;;;;;5.97;2.53;;;14.10;99.90;;;;;;5061773;28;20460;-78
2023/10/05 06:29:00;;;;;;;6.70;2.67;;;14.20;99.90;;;;;;5058830;28;20464;-77
2023/10/05 06:31:28;;;;;;;6.67;2.80;;;14.20;99.90;;;;;;5062049;28;20512;-77
2023/10/05 06:33:55;;;;;;;8.30;3.80;;;14.20;99.90;;;;;;5060194;28;20468;-78
2023/10/05 06:36:23;;;;;;;8.23;3.60;;;14.20;99.90;;;;;;5056960;28;20506;-78
2023/10/05 06:38:52;;;;;;;4.33;1.90;;;14.20;99.90;;;;;;5057217;28;20962;-78
2023/10/05 06:41:22;;;;;;;9.17;3.13;;;14.30;99.90;;;;;;5057270;28;20463;-78
2023/10/05 06:43:49;;;;;;;4.30;2.33;;;14.30;99.90;;;;;;5056265;28;20538;-78
2023/10/05 06:46:20;;;;;;;6.13;3.00;;;14.20;99.90;;;;;;5053643;28;20468;-78
2023/10/05 06:48:49;;;;;;;8.13;3.67;;;14.30;99.90;;;;;;5058292;28;20920;-78
2023/10/05 06:51:26;;;;;;;4.53;2.50;;;14.30;99.90;;;;;;5056786;28;20486;-79
2023/10/05 06:53:53;;;;;;;13.33;4.10;;;14.40;99.90;;;;;;5058020;28;20971;-79
2023/10/05 06:56:20;;;;;;;8.70;3.40;;;14.40;99.90;;;;;;5059049;28;20451;-78
2023/10/05 06:58:47;;;;;;;7.17;3.13;;;14.40;99.90;;;;;;5059453;28;20462;-78
2023/10/05 07:01:14;;;;;;;7.03;2.93;;;14.30;99.90;;;;;;5054272;28;20465;-78
2023/10/05 07:03:41;;;;;;;11.17;3.60;;;14.40;99.90;;;;;;5057463;28;20548;-78
2023/10/05 07:06:08;;;;;;;9.70;2.70;;;14.40;99.90;;;;;;5057595;28;20488;-79
2023/10/05 07:08:37;;;;;;;7.17;2.60;;;14.50;99.90;;;;;;5055943;28;20452;-78
2023/10/05 07:11:06;;;;;;;7.30;3.20;;;14.60;99.90;;;;;;5052163;28;20859;-79
2023/10/05 07:13:33;;;;;;;8.50;3.70;;;14.70;99.90;;;;;;5053389;28;20871;-79
2023/10/05 07:16:00;;;;;;;7.53;3.50;;;14.60;99.90;;;;;;5054637;28;20514;-79
2023/10/05 07:18:27;;;;;;;8.53;2.40;;;14.70;99.90;;;;;;5052933;28;20446;-77
2023/10/05 07:20:54;;;;;;;9.83;3.37;;;14.80;99.90;;;;;;5053682;28;20480;-78
2023/10/05 07:23:20;;;;;;;7.77;3.27;;;14.80;99.90;;;;;;5051975;28;20498;-78
2023/10/05 07:25:49;;;;;;;8.73;3.80;;;14.90;99.90;;;;;;5053677;28;20475;-79
2023/10/05 07:28:15;;;;;;;11.40;2.87;;;14.90;99.90;;;;;;5053560;28;20980;-77
2023/10/05 07:30:43;;;;;;;4.93;3.13;;;15.00;99.90;;;;;;5054252;28;21050;-78
2023/10/05 07:33:11;;;;;;;9.30;3.10;;;14.90;99.90;;;;;;5055793;28;20451;-78
2023/10/05 07:35:38;;;;;;;6.20;2.80;;;14.80;99.90;;;;;;5055408;28;20881;-78
2023/10/05 07:38:06;;;;;;;9.07;3.70;;;14.80;99.90;;;;;;5054707;28;20455;-78
2023/10/05 07:40:35;;;;;;;7.17;2.80;;;14.90;99.90;;;;;;5053978;28;20567;-77
2023/10/05 07:43:06;;;;;;;7.63;3.00;;;15.00;99.90;;;;;;5054306;28;20887;-77
2023/10/05 07:45:33;;;;;;;9.30;3.00;;;15.00;99.90;;;;;;5049611;28;20494;-80
2023/10/05 07:48:01;;;;;;;5.43;3.23;;;15.10;99.90;;;;;;5052916;28;20446;-78
2023/10/05 07:50:28;;;;;;;16.50;4.17;;;15.10;99.90;;;;;;5047466;28;20565;-79
2023/10/05 07:52:57;;;;;;;6.13;2.73;;;15.00;99.90;;;;;;5053414;28;20454;-78
2023/10/05 07:55:24;;;;;;;8.57;2.40;;;15.10;99.90;;;;;;5055581;28;20506;-77
2023/10/05 07:57:51;;;;;;;8.67;3.20;;;15.20;99.90;;;;;;5054296;28;20452;-81
2023/10/05 08:00:20;;;;;;;6.80;2.40;;;15.10;99.90;;;;;;5056210;28;20470;-78
2023/10/05 08:02:47;;;;;;;9.17;3.27;;;15.10;99.90;;;;;;5057300;28;20491;-78
2023/10/05 08:05:15;;;;;;;6.97;2.80;;;15.10;99.90;;;;;;5057404;28;20533;-78
2023/10/05 08:07:42;;;;;;;8.13;3.30;;;15.20;99.90;;;;;;5056456;28;20454;-78
2023/10/05 08:10:15;;;;;;;9.17;2.90;;;15.20;99.90;;;;;;5059648;28;20479;-79
2023/10/05 08:12:43;;;;;;;8.70;3.03;;;15.20;99.90;;;;;;5055809;28;20474;-80
2023/10/05 08:15:14;;;;;;;5.97;3.37;;;15.20;99.90;;;;;;5056776;28;20523;-79
2023/10/05 08:17:42;;;;;;;10.20;3.27;;;15.30;99.90;;;;;;5056455;28;20480;-79
2023/10/05 08:20:11;;;;;;;6.40;3.20;;;15.30;99.90;;;;;;5054905;28;20550;-79
2023/10/05 08:22:39;;;;;;;10.67;3.87;;;15.40;99.90;;;;;;5055070;28;20455;-78
2023/10/05 08:25:11;;;;;;;8.50;3.10;;;15.30;99.90;;;;;;5054828;28;20514;-79
2023/10/05 08:27:38;;;;;;;10.33;3.90;;;15.40;99.90;;;;;;5054414;28;20860;-78
2023/10/05 08:30:07;;;;;;;7.97;2.77;;;15.40;99.90;;;;;;5056192;28;20494;-79
2023/10/05 08:32:36;;;;;;;11.70;3.17;;;15.50;99.90;;;;;;5055298;28;20456;-79
2023/10/05 08:35:12;;;;;;;6.60;3.17;;;15.50;99.90;;;;;;5054335;28;20948;-78
2023/10/05 08:37:42;;;;;;;7.30;2.57;;;15.60;99.90;;;;;;5054149;28;20483;-79
2023/10/05 08:40:28;;;;;;;4.37;2.77;;;15.70;99.90;;;;;;5054462;28;20467;-79
2023/10/05 08:43:07;;;;;;;7.07;3.87;;;15.80;99.90;;;;;;5054746;28;20447;-79
2023/10/05 08:45:39;;;;;;;6.43;3.20;;;15.80;99.90;;;;;;5054430;28;20439;-78
2023/10/05 08:48:08;;;;;;;13.10;3.37;;;15.90;99.90;;;;;;5055719;28;20466;-79
2023/10/05 08:50:37;;;;;;;9.83;4.00;;;15.90;99.90;;;;;;5055151;28;20499;-79
2023/10/05 08:53:04;;;;;;;7.23;3.10;;;15.90;99.90;;;;;;5054637;28;20455;-79
2023/10/05 08:55:34;;;;;;;10.23;3.47;;;15.90;99.90;;;;;;5052798;28;20458;-78
2023/10/05 08:58:03;;;;;;;8.90;3.20;;;16.00;99.90;;;;;;5054341;28;20454;-79
2023/10/05 09:00:39;;;;;;;8.93;3.20;;;15.90;99.90;;;;;;5055381;28;20483;-79
2023/10/05 09:03:28;;;;;;;8.77;3.07;;;16.00;99.90;;;;;;5055192;28;20566;-79
2023/10/05 09:06:13;;;;;;;9.70;3.47;;;16.10;99.90;;;;;;5059207;28;20456;-79
2023/10/05 09:08:51;;;;;;;10.70;3.37;;;16.20;99.90;;;;;;5059080;28;20827;-78
2023/10/05 09:11:20;;;;;;;8.10;3.00;;;16.30;99.90;;;;;;5058319;28;20483;-79
2023/10/05 09:13:47;;;;;;;8.43;3.00;;;16.30;99.90;;;;;;5055617;28;20451;-79
2023/10/05 09:16:22;;;;;;;6.00;2.70;;;16.40;99.90;;;;;;5060267;28;20484;-77
2023/10/05 09:18:50;;;;;;;6.03;3.43;;;16.40;99.90;;;;;;5058593;28;20532;-79
2023/10/05 09:21:19;;;;;;;9.70;3.90;;;16.50;99.90;;;;;;5060356;28;20486;-80
2023/10/05 09:23:47;;;;;;;5.93;3.10;;;16.40;99.90;;;;;;5058724;28;20573;-78
2023/10/05 09:26:33;;;;;;;7.20;3.37;;;16.40;99.90;;;;;;5058767;28;20496;-79
2023/10/05 09:29:20;;;;;;;8.70;3.00;;;16.50;99.90;;;;;;5057377;28;20462;-78
2023/10/05 09:31:50;;;;;;;8.57;2.70;;;16.50;99.90;;;;;;5058556;28;20470;-79
2023/10/05 09:34:19;;;;;;;9.20;2.87;;;16.60;99.90;;;;;;5059662;28;20479;-79
2023/10/05 09:36:53;;;;;;;9.37;3.17;;;16.60;99.90;;;;;;5057578;28;20463;-79
2023/10/05 09:39:22;;;;;;;8.67;2.93;;;16.70;99.90;;;;;;5058600;28;20450;-79
2023/10/05 09:41:52;;;;;;;6.67;3.47;;;16.60;99.90;;;;;;5058434;28;20480;-78
2023/10/05 09:44:22;;;;;;;8.10;3.40;;;16.70;99.90;;;;;;5061581;28;20523;-79
2023/10/05 09:46:49;;;;;;;5.70;3.10;;;16.70;99.90;;;;;;5058061;28;20460;-79
2023/10/05 09:49:17;;;;;;;7.37;2.97;;;16.70;99.90;;;;;;5057160;28;20471;-79
2023/10/05 09:51:48;;;;;;;8.27;3.90;;;16.80;99.90;;;;;;5058618;28;20485;-79
2023/10/05 09:54:19;;;;;;;11.13;3.57;;;16.80;99.90;;;;;;5052711;28;20460;-78
2023/10/05 09:56:47;;;;;;;5.80;3.00;;;16.90;99.90;;;;;;5057287;28;20469;-79
2023/10/05 09:59:16;;;;;;;12.10;3.20;;;17.00;99.90;;;;;;5057034;28;20475;-78
2023/10/05 10:01:47;;;;;;;7.13;2.63;;;16.80;99.90;;;;;;5058953;28;20501;-79
2023/10/05 10:04:34;;;;;;;7.33;3.33;;;16.90;99.90;;;;;;5057388;28;20534;-79
2023/10/05 10:07:13;;;;;;;4.63;3.13;;;17.00;99.90;;;;;;5059862;28;20457;-79
2023/10/05 10:09:42;;;;;;;7.10;3.30;;;17.10;99.90;;;;;;5055803;28;20459;-78
2023/10/05 10:12:11;;;;;;;10.30;3.73;;;17.10;99.90;;;;;;5052253;28;20459;-77
2023/10/05 10:14:41;;;;;;;8.23;2.70;;;17.10;99.90;;;;;;5057267;28;20997;-79
2023/10/05 10:17:24;;;;;;;8.07;2.90;;;17.10;99.90;;;;;;5057816;28;20446;-79
2023/10/05 10:20:05;;;;;;;10.03;3.40;;;17.20;99.90;;;;;;5059307;28;20451;-79
2023/10/05 10:22:50;;;;;;;5.80;3.30;;;17.10;99.90;;;;;;5059064;28;20497;-79
2023/10/05 10:25:31;;;;;;;6.97;2.80;;;17.30;99.90;;;;;;5050882;28;20497;-78
2023/10/05 10:28:24;;;;;;;6.00;2.80;;;17.30;99.90;;;;;;5058051;28;20522;-79
2023/10/05 10:31:16;;;;;;;9.20;3.40;;;17.20;99.90;;;;;;5054600;28;20488;-78
2023/10/05 10:33:43;;;;;;;8.50;3.43;;;17.20;99.90;;;;;;5053633;28;20463;-79
2023/10/05 10:36:19;;;;;;;7.23;3.23;;;17.30;99.90;;;;;;5058279;28;20461;-79
2023/10/05 10:38:50;;;;;;;6.90;3.00;;;17.30;99.90;;;;;;5059260;28;20458;-79
2023/10/05 10:41:21;;;;;;;6.43;2.67;;;17.30;99.90;;;;;;5058490;28;20470;-79
2023/10/05 10:43:52;;;;;;;8.27;3.67;;;17.30;99.90;;;;;;5057761;28;20452;-79
2023/10/05 10:46:28;;;;;;;7.87;2.67;;;17.20;99.90;;;;;;5056660;28;20458;-79
2023/10/05 10:48:58;;;;;;;9.83;2.50;;;17.30;99.90;;;;;;5055745;28;20842;-79
2023/10/05 10:51:32;;;;;;;5.10;3.07;;;17.30;99.90;;;;;;5056431;28;20561;-78
2023/10/05 10:54:08;;;;;;;11.03;2.43;;;17.30;99.90;;;;;;5052670;28;20463;-79
2023/10/05 10:56:41;;;;;;;5.97;2.50;;;17.40;99.90;;;;;;5052704;28;20971;-79
2023/10/05 10:59:11;;;;;;;8.10;2.47;;;17.40;99.90;;;;;;5056914;28;20508;-77
2023/10/05 11:01:42;;;;;;;4.90;2.43;;;17.40;99.90;;;;;;5059059;28;20513;-78
2023/10/05 11:04:25;;;;;;;8.30;2.90;;;17.50;99.90;;;;;;5058564;28;20570;-79
2023/10/05 11:06:59;;;;;;;4.90;2.57;;;17.50;99.90;;;;;;5056907;28;20447;-78
2023/10/05 11:09:36;;;;;;;6.67;2.80;;;17.60;99.90;;;;;;5060728;28;20469;-79
2023/10/05 11:12:11;;;;;;;9.73;3.20;;;17.60;99.90;;;;;;5060734;28;20467;-79
2023/10/05 11:14:41;;;;;;;5.93;3.03;;;17.70;99.90;;;;;;5058453;28;20457;-79
2023/10/05 11:17:30;;;;;;;4.70;2.17;;;17.70;99.90;;;;;;5053452;28;20455;-79
2023/10/05 11:19:58;;;;;;;6.80;3.00;;;17.80;99.90;;;;;;5054712;28;20566;-79
2023/10/05 11:22:25;;;;;;;17.23;3.37;;;17.80;99.90;;;;;;5057934;28;20436;-80
2023/10/05 11:25:14;;;;;;;9.90;3.37;;;17.80;99.90;;;;;;5056637;28;21052;-79
2023/10/05 11:27:44;;;;;;;9.47;3.00;;;17.80;99.90;;;;;;5056935;28;20456;-79
2023/10/05 11:30:18;;;;;;;7.60;2.10;;;17.80;99.90;;;;;;5056809;28;20475;-79
2023/10/05 11:32:46;;;;;;;8.20;2.77;;;17.70;99.90;;;;;;5055269;28;20500;-79
2023/10/05 11:35:15;;;;;;;7.37;3.03;;;17.70;99.90;;;;;;5055696;28;20436;-79
2023/10/05 11:37:45;;;;;;;6.27;2.70;;;17.60;99.90;;;;;;5047411;28;20972;-78
2023/10/05 11:40:23;;;;;;;7.60;2.50;;;17.70;99.90;;;;;;5048342;28;20467;-79
2023/10/05 11:42:51;;;;;;;5.90;3.40;;;17.80;99.90;;;;;;5055847;28;20451;-79
2023/10/05 11:45:19;;;;;;;8.80;2.90;;;17.90;99.90;;;;;;5055563;28;20577;-79
2023/10/05 11:47:52;;;;;;;8.50;3.37;;;17.80;99.90;;;;;;5056789;28;20526;-79
2023/10/05 11:50:25;;;;;;;11.07;2.80;;;17.90;99.90;;;;;;5057030;28;20478;-80
2023/10/05 11:52:53;;;;;;;7.90;2.87;;;17.90;99.90;;;;;;5054759;28;20467;-79
2023/10/05 11:55:20;;;;;;;5.97;2.43;;;18.20;99.90;;;;;;5055805;28;20452;-80
2023/10/05 11:57:47;;;;;;;7.47;2.93;;;18.20;99.90;;;;;;5054862;28;20983;-80
2023/10/05 12:00:17;;;;;;;10.33;2.67;;;18.20;99.90;;;;;;5054526;28;20479;-80
2023/10/05 12:02:44;;;;;;;8.30;2.70;;;18.70;99.90;;;;;;5055531;28;20456;-80
2023/10/05 12:05:11;;;;;;;4.83;2.17;;;19.00;99.90;;;;;;5055654;28;21045;-79
2023/10/05 12:07:41;;;;;;;5.80;2.50;;;19.30;99.90;;;;;;5053871;28;20528;-79
2023/10/05 12:10:10;;;;;;;5.10;2.07;;;19.40;99.90;;;;;;5054218;28;20472;-79
2023/10/05 12:12:41;;;;;;;7.17;2.60;;;19.30;99.90;;;;;;5054744;28;20448;-79
2023/10/05 12:15:13;;;;;;;6.20;2.90;;;19.30;99.90;;;;;;5055045;28;20454;-79
2023/10/05 12:17:43;;;;;;;5.23;2.33;;;19.00;99.90;;;;;;5054692;28;20448;-79
2023/10/05 12:20:13;;;;;;;8.93;3.77;;;18.80;99.90;;;;;;5054262;28;20482;-78
2023/10/05 12:22:40;;;;;;;7.37;2.60;;;18.50;99.90;;;;;;5053552;28;20633;-79
2023/10/05 12:25:08;;;;;;;7.50;2.70;;;18.40;99.90;;;;;;5053475;28;20483;-79
2023/10/05 12:27:36;;;;;;;8.90;2.90;;;18.40;99.90;;;;;;5053661;28;20485;-79
2023/10/05 12:30:10;;;;;;;8.83;3.00;;;18.60;99.90;;;;;;5055991;28;20471;-79
2023/10/05 12:32:38;;;;;;;5.83;2.33;;;18.90;99.90;;;;;;5056519;28;20469;-79
2023/10/05 12:35:10;;;;;;;4.90;2.23;;;19.00;99.90;;;;;;5059103;28;20480;-79
2023/10/05 12:37:37;;;;;;;6.57;2.83;;;19.00;99.90;;;;;;5054438;28;20462;-79
2023/10/05 12:40:17;;;;;;;6.53;2.40;;;18.90;99.90;;;;;;5058936;28;21715;-79
2023/10/05 12:42:51;;;;;;;7.13;2.60;;;18.90;99.90;;;;;;5058537;28;20452;-79
2023/10/05 12:45:20;;;;;;;4.43;2.50;;;19.00;99.90;;;;;;5050540;28;20498;-79
2023/10/05 12:47:48;;;;;;;5.23;2.77;;;19.10;99.90;;;;;;5056568;28;20463;-79
2023/10/05 12:50:16;;;;;;;5.87;2.63;;;19.30;99.90;;;;;;5057295;28;20471;-78
2023/10/05 12:52:43;;;;;;;5.83;2.73;;;19.40;99.90;;;;;;5045581;28;20519;-79
2023/10/05 12:55:10;;;;;;;5.10;2.87;;;19.50;99.90;;;;;;5057591;28;20443;-79
2023/10/05 12:57:38;;;;;;;7.80;2.43;;;19.40;99.90;;;;;;5056499;28;20444;-79
2023/10/05 13:00:19;;;;;;;4.43;2.40;;;19.30;99.90;;;;;;5055023;28;20588;-79
2023/10/05 13:02:51;;;;;;;8.80;3.10;;;19.20;99.90;;;;;;5056331;28;20466;-78
2023/10/05 13:05:21;;;;;;;6.50;2.83;;;19.10;99.90;;;;;;5055285;28;21003;-79
2023/10/05 13:07:49;;;;;;;7.37;3.00;;;18.90;99.90;;;;;;5054961;28;20907;-78